Time;durP1;ratioP1;P1;durP2;ratioP2;P2;SDS_P1;SDS_P2;PMS_P1;PMS_P2;Temp;Humidity;BMP_temperature;BMP_pressure;BME280_temperature;BME280_humidity;BME280_pressure;Samples;Min_cycle;Max_cycle;Signal;HPM_P1;HPM_P2
2023/06/10 00:02:14;;;;;;;0.22;0.22;;;;;;;8.67;53.35;102911.19;5040053;28;20053;-76
2023/06/10 00:04:41;;;;;;;0.10;0.10;;;;;;;8.63;53.30;102909.38;5040416;28;20525;-76
2023/06/10 00:07:08;;;;;;;2.22;0.00;;;;;;;8.49;53.49;102885.59;5043051;28;20040;-76
2023/06/10 00:09:36;;;;;;;0.10;0.00;;;;;;;8.55;53.35;102905.69;5039466;28;20056;-76
2023/06/10 00:12:06;;;;;;;0.10;0.00;;;;;;;8.51;53.19;102901.28;5041353;28;20041;-76
2023/06/10 00:14:33;;;;;;;0.30;0.00;;;;;;;8.48;53.63;102911.59;5043352;28;20052;-76
2023/06/10 00:17:00;;;;;;;0.20;0.08;;;;;;;8.41;53.85;102907.09;5040734;28;20064;-76
2023/06/10 00:19:29;;;;;;;0.13;0.10;;;;;;;8.36;53.77;102901.72;5040827;28;20131;-76
2023/06/10 00:21:56;;;;;;;0.10;0.00;;;;;;;8.35;53.95;102907.78;5041577;28;20045;-76
2023/06/10 00:24:23;;;;;;;0.10;0.00;;;;;;;8.30;53.63;102910.25;5038458;28;20083;-76
2023/06/10 00:26:50;;;;;;;0.10;0.10;;;;;;;8.25;53.70;102908.38;5040606;28;20053;-76
2023/06/10 00:29:19;;;;;;;0.10;0.00;;;;;;;8.19;54.05;102906.50;5037150;28;20160;-76
2023/06/10 00:31:46;;;;;;;0.15;0.10;;;;;;;8.17;53.89;102916.03;5036482;28;20149;-76
2023/06/10 00:34:13;;;;;;;0.85;0.10;;;;;;;8.13;54.05;102910.69;5033656;28;20042;-76
2023/06/10 00:36:40;;;;;;;1.85;0.10;;;;;;;8.11;54.18;102916.75;5038709;28;20059;-76
2023/06/10 00:39:07;;;;;;;0.10;0.10;;;;;;;8.08;54.66;102920.97;5035020;28;20053;-76
2023/06/10 00:41:34;;;;;;;0.35;0.03;;;;;;;8.05;54.51;102921.78;5038265;28;20051;-76
2023/06/10 00:44:02;;;;;;;0.30;0.00;;;;;;;8.02;54.51;102926.88;5036735;28;20135;-76
2023/06/10 00:46:32;;;;;;;0.00;0.00;;;;;;;7.97;54.69;102923.31;5041629;28;20512;-76
2023/06/10 00:48:59;;;;;;;1.27;0.00;;;;;;;7.97;54.99;102930.22;5038280;28;20057;-76
2023/06/10 00:51:27;;;;;;;0.65;0.10;;;;;;;7.92;55.05;102924.91;5037238;28;20053;-76
2023/06/10 00:53:54;;;;;;;1.30;0.10;;;;;;;7.89;55.04;102928.28;5038762;28;20063;-76
2023/06/10 00:56:22;;;;;;;1.65;0.10;;;;;;;7.77;55.11;102916.66;5038559;28;20049;-76
2023/06/10 00:58:50;;;;;;;0.73;0.15;;;;;;;7.85;54.97;102943.78;5040433;28;20073;-76
2023/06/10 01:01:17;;;;;;;0.43;0.10;;;;;;;7.80;55.22;102943.66;5039210;28;20114;-76
2023/06/10 01:03:46;;;;;;;0.10;0.10;;;;;;;7.80;55.36;102945.41;5039201;28;20080;-76
2023/06/10 01:06:26;;;;;;;0.00;0.00;;;;;;;7.77;55.18;102947.88;5036770;28;20057;-76
2023/06/10 01:09:00;;;;;;;0.13;0.10;;;;;;;7.66;55.36;102938.06;5039338;28;20562;-76
2023/06/10 01:11:33;;;;;;;0.28;0.10;;;;;;;7.70;55.71;102949.44;5037332;28;20503;-76
2023/06/10 01:14:01;;;;;;;0.20;0.10;;;;;;;7.65;55.59;102945.81;5036131;28;20059;-76
2023/06/10 01:16:28;;;;;;;0.10;0.10;;;;;;;7.65;55.97;102951.03;5039167;28;20087;-76
2023/06/10 01:18:57;;;;;;;0.20;0.10;;;;;;;7.63;55.99;102952.72;5037157;28;20059;-76
2023/06/10 01:21:26;;;;;;;0.15;0.10;;;;;;;7.59;56.03;102945.66;5036915;28;20045;-76
2023/06/10 01:23:56;;;;;;;0.70;0.10;;;;;;;7.58;56.06;102949.97;5038109;28;20052;-77
2023/06/10 01:26:29;;;;;;;0.17;0.10;;;;;;;7.56;56.52;102948.16;5041041;28;20041;-76
2023/06/10 01:28:59;;;;;;;0.40;0.10;;;;;;;7.54;56.47;102944.63;5039956;28;20045;-76
2023/06/10 01:31:37;;;;;;;0.30;0.03;;;;;;;7.49;56.38;102935.84;5036967;28;20489;-76
2023/06/10 01:34:10;;;;;;;0.45;0.10;;;;;;;7.49;56.67;102943.63;5034637;28;20437;-76
2023/06/10 01:36:41;;;;;;;0.10;0.10;;;;;;;7.48;56.68;102960.06;5031342;28;20528;-76
2023/06/10 01:39:09;;;;;;;0.73;0.10;;;;;;;7.48;56.88;102954.84;5037506;28;20045;-76
2023/06/10 01:41:37;;;;;;;0.32;0.10;;;;;;;7.42;57.14;102946.03;5036352;28;20545;-76
2023/06/10 01:44:04;;;;;;;0.25;0.10;;;;;;;7.46;57.12;102957.44;5039262;28;20410;-75
2023/06/10 01:46:31;;;;;;;0.10;0.05;;;;;;;7.45;57.30;102958.25;5035849;28;20549;-76
2023/06/10 01:48:58;;;;;;;0.32;0.10;;;;;;;7.44;57.65;102962.56;5039139;28;20050;-76
2023/06/10 01:51:25;;;;;;;0.10;0.10;;;;;;;7.44;57.51;102964.28;5042125;28;20052;-77
2023/06/10 01:53:53;;;;;;;0.20;0.10;;;;;;;7.44;57.62;102964.28;5040639;28;20511;-76
2023/06/10 01:56:20;;;;;;;0.22;0.10;;;;;;;7.43;57.66;102963.41;5036249;28;20078;-77
2023/06/10 01:58:47;;;;;;;0.65;0.17;;;;;;;7.42;57.76;102964.22;5037565;28;20052;-76
2023/06/10 02:01:15;;;;;;;0.30;0.20;;;;;;;7.42;57.69;102974.63;5038882;28;20045;-76
2023/06/10 02:03:42;;;;;;;0.65;0.10;;;;;;;7.41;57.96;102969.41;5034955;28;20052;-76
2023/06/10 02:06:08;;;;;;;0.22;0.10;;;;;;;7.34;57.92;102947.56;5039006;28;20053;-76
2023/06/10 02:08:35;;;;;;;1.95;0.10;;;;;;;7.38;57.87;102962.41;5040071;28;20063;-77
2023/06/10 02:11:04;;;;;;;1.55;0.38;;;;;;;7.38;58.16;102957.19;5033765;28;20568;-76
2023/06/10 02:13:31;;;;;;;0.65;0.10;;;;;;;7.37;58.14;102958.03;5024041;28;20056;-76
2023/06/10 02:15:57;;;;;;;0.10;0.05;;;;;;;7.37;58.32;102957.13;5030874;28;20424;-76
2023/06/10 02:18:26;;;;;;;0.17;0.10;;;;;;;7.36;58.49;102957.97;5039161;28;20060;-76
2023/06/10 02:20:53;;;;;;;0.30;0.10;;;;;;;7.36;58.53;102961.47;5033301;28;20060;-76
2023/06/10 02:23:20;;;;;;;0.10;0.10;;;;;;;7.36;58.56;102963.19;5035465;28;20590;-76
2023/06/10 02:25:48;;;;;;;1.30;0.10;;;;;;;7.36;58.87;102969.25;5036538;28;20068;-76
2023/06/10 02:28:16;;;;;;;1.23;0.10;;;;;;;7.29;59.54;102958.66;5035939;28;20049;-76
2023/06/10 02:30:43;;;;;;;0.15;0.10;;;;;;;7.37;58.93;102968.44;5038479;28;20050;-76
2023/06/10 02:33:10;;;;;;;2.35;0.10;;;;;;;7.37;58.86;102967.53;5038749;28;20049;-87
2023/06/10 02:35:38;;;;;;;1.13;0.10;;;;;;;7.32;59.22;102963.94;5040689;28;20049;-86
2023/06/10 02:38:05;;;;;;;0.20;0.10;;;;;;;7.35;59.15;102964.91;5037483;28;20061;-87
2023/06/10 02:40:32;;;;;;;0.30;0.10;;;;;;;7.40;59.13;102983.25;5036750;28;20045;-87
2023/06/10 02:42:59;;;;;;;0.10;0.10;;;;;;;7.40;59.22;102978.94;5038915;28;20660;-87
2023/06/10 02:45:27;;;;;;;0.20;0.08;;;;;;;7.36;59.77;102973.59;5036462;28;20416;-86
2023/06/10 02:47:54;;;;;;;0.10;0.10;;;;;;;7.36;59.79;102971.84;5040344;28;20063;-86
2023/06/10 02:50:22;;;;;;;0.17;0.10;;;;;;;7.44;59.91;102975.56;5039048;28;20051;-86
2023/06/10 02:52:49;;;;;;;1.63;0.10;;;;;;;7.48;59.85;102975.66;5039931;28;20052;-86
2023/06/10 02:55:16;;;;;;;0.10;0.10;;;;;;;7.50;60.03;102980.06;5035920;28;20053;-86
2023/06/10 02:57:43;;;;;;;0.10;0.10;;;;;;;7.51;60.43;102983.56;5039382;28;20373;-86
2023/06/10 03:00:14;;;;;;;2.10;0.10;;;;;;;7.51;60.32;102983.56;5040797;28;20045;-87
2023/06/10 03:02:42;;;;;;;0.10;0.10;;;;;;;7.55;60.69;102988.03;5035882;28;20064;-87
2023/06/10 03:05:10;;;;;;;0.10;0.10;;;;;;;7.57;60.65;102984.63;5040995;28;20053;-87
2023/06/10 03:07:38;;;;;;;0.10;0.10;;;;;;;7.50;60.78;102971.41;5037993;28;20103;-86
2023/06/10 03:10:05;;;;;;;0.40;0.10;;;;;;;7.63;60.99;102991.72;5042890;28;20064;-86
2023/06/10 03:12:33;;;;;;;0.20;0.10;;;;;;;7.67;61.12;102988.38;5041571;28;20055;-86
2023/06/10 03:14:59;;;;;;;0.40;0.15;;;;;;;7.71;61.19;102986.72;5038813;28;20041;-86
2023/06/10 03:17:26;;;;;;;0.20;0.10;;;;;;;7.75;61.62;102994.69;5038467;28;20053;-86
2023/06/10 03:19:55;;;;;;;1.27;0.10;;;;;;;7.81;61.63;102996.59;5038929;28;20057;-87
2023/06/10 03:22:22;;;;;;;0.70;0.00;;;;;;;7.85;61.68;103001.94;5038389;28;20060;-86
2023/06/10 03:24:50;;;;;;;0.45;0.40;;;;;;;7.89;61.71;102990.75;5039712;28;20493;-87
2023/06/10 03:27:20;;;;;;;0.10;0.10;;;;;;;7.83;61.84;102968.91;5038661;28;20061;-87
2023/06/10 03:29:47;;;;;;;2.00;0.03;;;;;;;8.02;61.69;102988.47;5043850;28;20060;-86
2023/06/10 03:32:14;;;;;;;0.10;0.10;;;;;;;8.03;62.37;102983.34;5041778;28;20120;-87
2023/06/10 03:34:42;;;;;;;1.65;0.10;;;;;;;8.14;62.35;102996.66;5041982;28;20168;-87
2023/06/10 03:37:10;;;;;;;0.15;0.10;;;;;;;8.22;62.33;102989.91;5042644;28;20071;-88
2023/06/10 03:39:37;;;;;;;0.10;0.08;;;;;;;8.21;62.50;102977.72;5040674;28;20184;-87
2023/06/10 03:42:05;;;;;;;0.10;0.10;;;;;;;8.38;62.28;102990.31;5041476;28;20049;-87
2023/06/10 03:44:32;;;;;;;0.00;0.00;;;;;;;8.47;62.67;102993.19;5036927;28;20048;-87
2023/06/10 03:46:59;;;;;;;0.10;0.10;;;;;;;8.55;62.46;102995.16;5039174;28;20107;-87
2023/06/10 03:49:28;;;;;;;0.10;0.10;;;;;;;8.63;62.63;102984.94;5041132;28;20072;-87
2023/06/10 03:51:55;;;;;;;0.22;0.10;;;;;;;8.70;62.47;102984.22;5044528;28;20060;-87
2023/06/10 03:54:24;;;;;;;0.15;0.03;;;;;;;8.84;62.45;102992.38;5038402;28;20516;-86
2023/06/10 03:56:51;;;;;;;0.20;0.00;;;;;;;8.95;62.52;103000.47;5041570;28;20060;-87
2023/06/10 03:59:18;;;;;;;0.40;0.00;;;;;;;9.06;62.23;102993.78;5042190;28;20041;-87
2023/06/10 04:01:45;;;;;;;0.10;0.10;;;;;;;9.15;62.15;102996.59;5041675;28;20045;-87
2023/06/10 04:04:16;;;;;;;0.00;0.00;;;;;;;9.22;61.68;102998.50;5043011;28;20051;-87
2023/06/10 04:06:44;;;;;;;0.20;0.10;;;;;;;9.30;61.51;102988.22;5044134;28;20072;-88
2023/06/10 04:09:11;;;;;;;0.10;0.10;;;;;;;9.46;61.55;102995.56;5051283;28;20416;-88
2023/06/10 04:11:39;;;;;;;0.20;0.10;;;;;;;9.58;61.59;103000.16;5047476;28;20486;-87
2023/06/10 04:14:06;;;;;;;0.20;0.10;;;;;;;9.67;61.28;102999.47;5049410;28;20045;-87
2023/06/10 04:16:33;;;;;;;0.20;0.00;;;;;;;9.67;61.44;102978.59;5046933;28;20049;-87
2023/06/10 04:19:00;;;;;;;0.03;0.00;;;;;;;9.91;61.27;103002.59;5051017;28;20041;-87
2023/06/10 04:21:27;;;;;;;0.30;0.10;;;;;;;10.02;61.23;103002.81;5047607;28;20042;-88
2023/06/10 04:23:54;;;;;;;2.40;0.03;;;;;;;10.02;60.77;102989.75;5050528;28;20398;-87
2023/06/10 04:26:21;;;;;;;0.00;0.00;;;;;;;10.23;60.77;103009.28;5046916;28;20158;-87
2023/06/10 04:28:50;;;;;;;0.90;0.90;;;;;;;10.35;60.60;103004.31;5048062;28;20504;-87
2023/06/10 04:31:17;;;;;;;0.10;0.10;;;;;;;10.39;60.10;102993.06;5041591;28;20409;-87
2023/06/10 04:33:44;;;;;;;0.32;0.10;;;;;;;10.61;60.07;103003.88;5047578;28;20071;-87
2023/06/10 04:36:11;;;;;;;0.20;0.10;;;;;;;10.73;59.38;103005.00;5042850;28;20113;-87
2023/06/10 04:38:38;;;;;;;0.00;0.00;;;;;;;10.88;59.76;103000.88;5048937;28;20050;-87
2023/06/10 04:41:05;;;;;;;0.10;0.03;;;;;;;11.00;59.23;103001.91;5044420;28;20044;-87
2023/06/10 04:43:32;;;;;;;0.70;0.10;;;;;;;10.96;58.94;102979.22;5047632;28;20048;-87
2023/06/10 04:46:00;;;;;;;0.73;0.00;;;;;;;11.11;59.42;102981.16;5042282;28;21064;-87
2023/06/10 04:48:27;;;;;;;0.35;0.00;;;;;;;11.32;58.75;102991.03;5048089;28;20046;-85
2023/06/10 04:50:54;;;;;;;0.30;0.10;;;;;;;11.61;58.20;103015.00;5051200;28;20045;-87
2023/06/10 04:53:21;;;;;;;0.00;0.00;;;;;;;11.68;58.18;103005.50;5050523;28;20044;-86
2023/06/10 04:55:48;;;;;;;1.35;0.05;;;;;;;11.82;57.57;103006.53;5048408;28;20053;-86
2023/06/10 04:58:16;;;;;;;0.10;0.10;;;;;;;12.00;57.35;103015.50;5046543;28;20046;-85
2023/06/10 05:00:43;;;;;;;0.10;0.05;;;;;;;12.15;56.98;103018.28;5048394;28;20045;-86
2023/06/10 05:03:12;;;;;;;0.15;0.10;;;;;;;12.28;57.18;103009.69;5037428;28;20057;-86
2023/06/10 05:05:39;;;;;;;0.03;0.00;;;;;;;12.29;56.52;102997.47;5042081;28;20045;-85
2023/06/10 05:08:06;;;;;;;3.30;0.00;;;;;;;12.52;56.45;103016.03;5046683;28;20045;-86
2023/06/10 05:10:34;;;;;;;0.10;0.10;;;;;;;12.69;55.92;103018.81;5046037;28;20049;-85
2023/06/10 05:13:01;;;;;;;0.20;0.10;;;;;;;12.85;55.36;103009.34;5044683;28;20049;-86
2023/06/10 05:15:27;;;;;;;0.10;0.10;;;;;;;13.00;55.24;103009.44;5050631;28;20342;-84
2023/06/10 05:17:54;;;;;;;0.35;0.10;;;;;;;13.01;54.72;102987.59;5048775;28;20127;-85
2023/06/10 05:20:25;;;;;;;0.20;0.08;;;;;;;13.26;54.01;103012.25;5040156;28;20488;-85
2023/06/10 05:22:52;;;;;;;2.30;0.50;;;;;;;13.44;53.85;103011.53;5043269;28;20076;-85
2023/06/10 05:25:19;;;;;;;0.03;0.00;;;;;;;13.56;53.78;103008.94;5042163;28;20045;-84
2023/06/10 05:27:46;;;;;;;0.00;0.00;;;;;;;13.70;53.25;103009.88;5042882;28;20081;-84
2023/06/10 05:30:13;;;;;;;0.52;0.00;;;;;;;13.84;52.94;103014.31;5045216;28;20124;-85
2023/06/10 05:32:40;;;;;;;0.00;0.00;;;;;;;13.88;52.57;103001.19;5042332;28;20064;-84
2023/06/10 05:35:08;;;;;;;0.10;0.10;;;;;;;14.04;52.54;103009.13;5043893;28;20056;-83
2023/06/10 05:37:37;;;;;;;0.20;0.00;;;;;;;14.15;51.82;103008.28;5042285;28;20053;-83
2023/06/10 05:40:05;;;;;;;0.20;0.10;;;;;;;14.29;51.40;103008.31;5044559;28;20049;-83
2023/06/10 05:42:32;;;;;;;0.63;0.00;;;;;;;14.44;50.87;103017.97;5040876;28;20050;-84
2023/06/10 05:44:59;;;;;;;0.00;0.00;;;;;;;14.57;50.38;103014.53;5042660;28;20051;-86
2023/06/10 05:47:26;;;;;;;0.10;0.00;;;;;;;14.69;50.67;103016.28;5044831;28;20083;-85
2023/06/10 05:49:53;;;;;;;0.25;0.03;;;;;;;14.69;50.34;102991.72;5044821;28;20053;-85
2023/06/10 05:52:20;;;;;;;0.17;0.00;;;;;;;14.62;50.25;102970.66;5037807;28;20132;-86
2023/06/10 05:54:50;;;;;;;0.55;0.00;;;;;;;14.78;49.93;102989.97;5036946;28;20413;-87
2023/06/10 05:57:17;;;;;;;2.28;0.10;;;;;;;15.01;49.56;103020.66;5045417;28;20046;-85
2023/06/10 05:59:44;;;;;;;0.00;0.00;;;;;;;15.09;49.49;103018.00;5040029;28;20045;-85
2023/06/10 06:02:10;;;;;;;3.63;0.10;;;;;;;15.15;49.17;103020.63;5039455;28;20075;-85
2023/06/10 06:04:37;;;;;;;0.95;0.28;;;;;;;15.20;49.24;103016.25;5044761;28;20045;-85
2023/06/10 06:07:05;;;;;;;0.38;0.00;;;;;;;15.26;48.55;103013.59;5039984;28;20056;-86
2023/06/10 06:09:32;;;;;;;1.48;0.10;;;;;;;15.33;48.55;103009.16;5042008;28;20089;-86
2023/06/10 06:12:00;;;;;;;0.10;0.10;;;;;;;15.37;47.98;103017.06;5039086;28;20045;-86
2023/06/10 06:14:27;;;;;;;1.85;0.00;;;;;;;15.27;47.87;102989.00;5039328;28;20055;-87
2023/06/10 06:16:54;;;;;;;0.85;0.00;;;;;;;15.45;48.09;103020.56;5040427;28;20049;-87
2023/06/10 06:19:21;;;;;;;0.20;0.00;;;;;;;15.48;47.70;103020.56;5041174;28;20053;-85
2023/06/10 06:21:48;;;;;;;1.02;0.20;;;;;;;15.48;47.63;103020.56;5042084;28;20053;-84
2023/06/10 06:24:16;;;;;;;0.30;0.10;;;;;;;15.51;47.59;103017.91;5043980;28;20049;-84
2023/06/10 06:26:43;;;;;;;0.00;0.00;;;;;;;15.58;47.41;103024.03;5038161;28;20041;-84
2023/06/10 06:29:12;;;;;;;0.05;0.00;;;;;;;15.61;47.50;103023.13;5046625;28;20057;-84
2023/06/10 06:31:39;;;;;;;0.10;0.00;;;;;;;15.63;47.37;103021.38;5038465;28;20080;-84
2023/06/10 06:34:06;;;;;;;0.38;0.00;;;;;;;15.62;46.93;103028.38;5042466;28;20037;-84
2023/06/10 06:36:33;;;;;;;0.00;0.00;;;;;;;15.59;47.34;103019.63;5039190;28;20134;-84
2023/06/10 06:39:00;;;;;;;0.30;0.13;;;;;;;15.47;46.85;103002.97;5040469;28;20527;-84
2023/06/10 06:41:27;;;;;;;0.10;0.00;;;;;;;15.69;46.63;103037.19;5043156;28;20051;-84
2023/06/10 06:43:55;;;;;;;0.10;0.10;;;;;;;15.72;46.72;103031.91;5040876;28;20045;-83
2023/06/10 06:46:24;;;;;;;0.10;0.00;;;;;;;15.80;46.80;103032.75;5042282;28;20059;-83
2023/06/10 06:48:51;;;;;;;1.45;0.00;;;;;;;15.85;46.71;103040.63;5039194;28;20056;-84
2023/06/10 06:51:18;;;;;;;1.95;0.00;;;;;;;15.89;46.24;103037.97;5036337;28;20058;-83
2023/06/10 06:53:45;;;;;;;0.08;0.03;;;;;;;16.00;45.39;103042.34;5035286;28;20049;-83
2023/06/10 06:56:12;;;;;;;1.95;0.00;;;;;;;16.09;45.73;103043.16;5039942;28;20080;-82
2023/06/10 06:58:39;;;;;;;0.25;0.10;;;;;;;16.21;45.62;103046.63;5038799;28;20056;-82
2023/06/10 07:01:06;;;;;;;0.30;0.00;;;;;;;16.26;44.67;103027.25;5038478;28;20603;-83
2023/06/10 07:03:34;;;;;;;0.22;0.00;;;;;;;16.46;44.83;103042.06;5039986;28;20045;-82
2023/06/10 07:06:01;;;;;;;0.00;0.00;;;;;;;16.57;44.50;103050.78;5039838;28;20053;-82
2023/06/10 07:08:28;;;;;;;2.58;0.00;;;;;;;16.66;44.38;103048.06;5040303;28;20049;-82
2023/06/10 07:10:55;;;;;;;0.08;0.08;;;;;;;16.72;44.72;103045.38;5035983;28;20125;-82
2023/06/10 07:13:22;;;;;;;0.08;0.00;;;;;;;16.89;43.71;103052.31;5035275;28;20429;-82
2023/06/10 07:15:49;;;;;;;0.00;0.00;;;;;;;16.95;44.44;103042.56;5040444;28;20041;-81
2023/06/10 07:18:17;;;;;;;0.50;0.10;;;;;;;17.03;44.44;103042.50;5040065;28;20049;-81
2023/06/10 07:20:45;;;;;;;2.10;0.10;;;;;;;17.10;44.11;103041.56;5037530;28;20053;-81
2023/06/10 07:23:12;;;;;;;0.03;0.00;;;;;;;17.07;43.63;103023.97;5036787;28;20053;-81
2023/06/10 07:25:39;;;;;;;0.20;0.00;;;;;;;17.15;43.40;103018.63;5039501;28;20828;-81
2023/06/10 07:28:12;;;;;;;3.30;0.10;;;;;;;17.39;43.37;103043.03;5042668;28;20787;-81
2023/06/10 07:30:39;;;;;;;0.10;0.10;;;;;;;17.46;43.32;103036.78;5040428;28;20127;-82
2023/06/10 07:33:10;;;;;;;0.10;0.10;;;;;;;17.58;42.66;103039.28;5038979;28;20449;-82
2023/06/10 07:35:38;;;;;;;0.43;0.00;;;;;;;17.72;42.08;103042.63;5040267;28;20049;-82
2023/06/10 07:38:06;;;;;;;0.43;0.00;;;;;;;17.91;41.82;103040.69;5040590;28;20519;-81
2023/06/10 07:40:33;;;;;;;0.80;0.10;;;;;;;18.06;41.44;103042.22;5041817;28;20049;-80
2023/06/10 07:43:00;;;;;;;0.45;0.00;;;;;;;18.09;41.24;103026.31;5040359;28;20060;-81
2023/06/10 07:45:27;;;;;;;0.00;0.00;;;;;;;18.33;41.21;103037.47;5042607;28;20458;-81
2023/06/10 07:47:55;;;;;;;0.00;0.00;;;;;;;18.47;40.86;103043.44;5041686;28;20053;-81
2023/06/10 07:50:22;;;;;;;0.10;0.00;;;;;;;18.58;40.38;103040.59;5044343;28;20063;-81
2023/06/10 07:52:49;;;;;;;1.00;0.00;;;;;;;18.68;39.68;103042.19;5044699;28;20060;-80
2023/06/10 07:55:18;;;;;;;0.45;0.32;;;;;;;18.79;39.21;103044.72;5043599;28;20316;-81
2023/06/10 07:57:45;;;;;;;0.20;0.10;;;;;;;18.69;38.92;103013.94;5041200;28;20045;-81
2023/06/10 08:00:12;;;;;;;0.10;0.10;;;;;;;18.94;39.38;103041.78;5039945;28;20054;-81
2023/06/10 08:02:39;;;;;;;0.10;0.10;;;;;;;18.94;38.38;103031.19;5037744;28;20704;-82
2023/06/10 08:05:07;;;;;;;1.40;0.20;;;;;;;18.96;37.99;103026.75;5037846;28;20049;-82
2023/06/10 08:07:34;;;;;;;0.85;0.10;;;;;;;19.11;37.93;103046.78;5044852;28;20501;-82
2023/06/10 08:10:01;;;;;;;0.10;0.10;;;;;;;18.95;38.03;103009.09;5036170;28;20619;-82
2023/06/10 08:12:30;;;;;;;0.75;0.10;;;;;;;19.24;37.42;103045.66;5040777;28;20129;-83
2023/06/10 08:14:57;;;;;;;0.00;0.00;;;;;;;19.27;36.59;103036.78;5039884;28;20045;-83
2023/06/10 08:17:24;;;;;;;0.45;0.00;;;;;;;19.33;36.46;103041.97;5040670;28;20060;-89
2023/06/10 08:19:51;;;;;;;0.10;0.00;;;;;;;19.31;35.82;103038.47;5042138;28;20057;-90
2023/06/10 08:22:18;;;;;;;0.43;0.00;;;;;;;19.38;36.17;103045.41;5047122;28;20055;-89
2023/06/10 08:24:45;;;;;;;0.10;0.00;;;;;;;19.30;35.52;103024.34;5042961;28;20055;-90
2023/06/10 08:27:12;;;;;;;0.03;0.03;;;;;;;19.48;35.54;103046.09;5044218;28;20308;-89
2023/06/10 08:29:41;;;;;;;1.30;0.00;;;;;;;19.48;34.65;103041.66;5041778;28;20045;-88
2023/06/10 08:32:08;;;;;;;1.40;0.00;;;;;;;19.54;34.72;103049.47;5042337;28;20524;-89
2023/06/10 08:34:36;;;;;;;0.10;0.00;;;;;;;19.38;34.97;103013.59;5040834;28;20055;-89
2023/06/10 08:37:03;;;;;;;0.00;0.00;;;;;;;19.53;34.59;103036.28;5040189;28;21123;-90
2023/06/10 08:39:31;;;;;;;0.20;0.05;;;;;;;19.61;33.85;103044.06;5039740;28;20056;-89
2023/06/10 08:42:10;;;;;;;0.08;0.05;;;;;;;19.39;34.04;103002.09;5044829;28;20076;-89
2023/06/10 08:44:38;;;;;;;0.10;0.00;;;;;;;19.58;33.81;103025.56;5045819;28;20518;-89
2023/06/10 08:47:14;;;;;;;0.13;0.10;;;;;;;19.52;33.35;103016.84;5043007;28;20048;-89
2023/06/10 08:49:44;;;;;;;0.00;0.00;;;;;;;19.69;33.11;103042.16;5046170;28;20477;-89
2023/06/10 08:52:15;;;;;;;0.10;0.03;;;;;;;19.73;33.70;103046.50;5041222;28;20388;-90
2023/06/10 08:54:44;;;;;;;3.03;0.00;;;;;;;19.74;33.61;103051.78;5047402;28;20049;-90
2023/06/10 08:57:12;;;;;;;1.77;0.05;;;;;;;19.76;33.62;103052.63;5045802;28;20055;-89
2023/06/10 08:59:39;;;;;;;0.20;0.10;;;;;;;19.78;33.38;103036.69;5052376;28;20139;-89
2023/06/10 09:02:10;;;;;;;0.52;0.10;;;;;;;19.80;33.78;103044.59;5040781;28;20382;-90
2023/06/10 09:04:37;;;;;;;0.30;0.05;;;;;;;19.79;33.90;103041.06;5046228;28;20045;-89
2023/06/10 09:07:05;;;;;;;0.55;0.10;;;;;;;19.73;34.09;103031.47;5038816;28;20042;-88
2023/06/10 09:09:35;;;;;;;0.00;0.00;;;;;;;19.63;33.68;103010.44;5045978;28;20056;-90
2023/06/10 09:12:02;;;;;;;1.85;0.10;;;;;;;19.81;33.92;103033.06;5045772;28;20057;-89
2023/06/10 09:14:28;;;;;;;2.78;0.10;;;;;;;19.87;33.60;103035.63;5046116;28;20062;-90
2023/06/10 09:16:57;;;;;;;0.20;0.10;;;;;;;19.90;34.38;103033.75;5044300;28;20060;-90
2023/06/10 09:19:26;;;;;;;0.20;0.08;;;;;;;19.91;33.91;103035.50;5041581;28;20056;-91
2023/06/10 09:21:53;;;;;;;0.30;0.03;;;;;;;19.95;34.70;103036.28;5048232;28;20055;-88
2023/06/10 09:24:21;;;;;;;0.68;0.10;;;;;;;19.89;34.55;103029.34;5043684;28;20405;-87
2023/06/10 09:26:50;;;;;;;0.10;0.10;;;;;;;19.97;34.92;103040.66;5048833;28;20056;-86
2023/06/10 09:29:18;;;;;;;0.60;0.05;;;;;;;19.84;35.65;103014.47;5029132;28;20045;-87
2023/06/10 09:31:45;;;;;;;0.05;0.00;;;;;;;19.96;36.26;103036.28;5049053;28;20049;-88
2023/06/10 09:34:14;;;;;;;0.10;0.08;;;;;;;19.97;35.56;103038.00;5043953;28;20045;-87
2023/06/10 09:36:42;;;;;;;0.15;0.10;;;;;;;19.76;36.11;103001.38;5040769;28;20519;-89
2023/06/10 09:39:16;;;;;;;1.42;0.10;;;;;;;20.00;36.18;103039.72;5035850;28;20572;-86
2023/06/10 09:41:44;;;;;;;1.75;0.00;;;;;;;19.85;36.26;103008.25;5043672;28;20362;-88
2023/06/10 09:44:14;;;;;;;0.10;0.10;;;;;;;20.03;36.97;103039.66;5044038;28;20051;-86
2023/06/10 09:46:42;;;;;;;12.85;0.20;;;;;;;20.06;37.13;103044.91;5044416;28;20056;-85
2023/06/10 09:49:09;;;;;;;0.20;0.10;;;;;;;20.09;36.23;103038.66;5034672;28;20059;-79
2023/06/10 09:51:36;;;;;;;0.63;0.10;;;;;;;20.12;36.62;103038.56;5038683;28;20045;-79
2023/06/10 09:54:05;;;;;;;7.72;0.40;;;;;;;20.00;36.28;103013.19;5035336;28;20067;-79
2023/06/10 09:56:36;;;;;;;1.50;0.20;;;;;;;20.07;36.59;103016.59;5036250;28;20047;-79
2023/06/10 09:59:05;;;;;;;2.40;0.08;;;;;;;20.10;36.25;103016.53;5036018;28;20582;-79
2023/06/10 10:01:33;;;;;;;0.50;0.10;;;;;;;20.21;36.73;103038.41;5034905;28;20060;-79
2023/06/10 10:04:00;;;;;;;4.78;0.10;;;;;;;20.22;36.12;103035.69;5039622;28;20522;-87
2023/06/10 10:06:28;;;;;;;0.00;0.00;;;;;;;20.23;35.95;103036.56;5041324;28;20055;-93
2023/06/10 10:08:55;;;;;;;0.00;0.00;;;;;;;20.16;36.04;103043.78;5040654;28;20051;-82
2023/06/10 10:11:25;;;;;;;0.55;0.10;;;;;;;20.13;36.27;103043.00;5038508;28;20059;-86
2023/06/10 10:13:54;;;;;;;1.13;0.00;;;;;;;20.09;36.46;103036.00;5037578;28;20056;-77
2023/06/10 10:16:22;;;;;;;2.20;0.20;;;;;;;19.97;36.49;103022.09;5031272;28;20052;-78
2023/06/10 10:18:54;;;;;;;0.10;0.00;;;;;;;20.07;36.21;103035.19;5037116;28;20049;-78
2023/06/10 10:21:24;;;;;;;0.00;0.00;;;;;;;20.10;36.04;103040.41;5035575;28;20055;-77
2023/06/10 10:23:59;;;;;;;0.43;0.00;;;;;;;20.14;35.38;103042.06;5038639;28;20047;-78
2023/06/10 10:26:28;;;;;;;1.45;0.10;;;;;;;20.16;35.17;103040.28;5038493;28;20467;-77
2023/06/10 10:29:08;;;;;;;0.47;0.00;;;;;;;20.19;35.28;103040.19;5038116;28;20049;-77
2023/06/10 10:31:37;;;;;;;0.10;0.00;;;;;;;20.19;34.82;103029.59;5034430;28;20045;-76
2023/06/10 10:34:08;;;;;;;1.60;0.05;;;;;;;20.19;34.63;103026.94;5034684;28;20041;-76
2023/06/10 10:36:37;;;;;;;1.17;0.00;;;;;;;20.18;34.18;103034.03;5039709;28;20524;-77
2023/06/10 10:39:05;;;;;;;2.35;0.00;;;;;;;20.19;34.15;103029.59;5034911;28;20051;-77
2023/06/10 10:41:35;;;;;;;0.08;0.00;;;;;;;20.20;34.09;103028.66;5039474;28;20393;-77
2023/06/10 10:44:05;;;;;;;2.25;0.10;;;;;;;20.19;34.25;103027.81;5035899;28;20147;-77
2023/06/10 10:46:42;;;;;;;0.52;0.00;;;;;;;20.20;34.24;103026.00;5038085;28;20543;-76
2023/06/10 10:49:11;;;;;;;5.93;0.10;;;;;;;20.19;33.66;103034.91;5036754;28;20412;-76
2023/06/10 10:51:38;;;;;;;0.10;0.10;;;;;;;20.19;33.71;103032.25;5041741;28;20053;-76
2023/06/10 10:54:12;;;;;;;0.68;0.10;;;;;;;20.21;33.76;103027.78;5037497;28;20470;-76
2023/06/10 10:56:40;;;;;;;0.20;0.08;;;;;;;20.22;32.82;103032.16;5036729;28;20464;-76
2023/06/10 10:59:09;;;;;;;1.55;0.10;;;;;;;20.19;32.74;103029.59;5033298;28;20042;-78
2023/06/10 11:01:45;;;;;;;0.17;0.17;;;;;;;20.24;32.53;103035.66;5034871;28;20049;-76
2023/06/10 11:04:12;;;;;;;0.10;0.08;;;;;;;20.21;32.72;103038.41;5033487;28;20135;-76
2023/06/10 11:06:39;;;;;;;0.10;0.10;;;;;;;20.19;32.26;103029.59;5036562;28;20049;-77
2023/06/10 11:09:28;;;;;;;1.75;0.10;;;;;;;20.16;32.42;103033.19;5034987;28;20041;-76
2023/06/10 11:11:59;;;;;;;0.00;0.00;;;;;;;20.16;32.18;103032.31;5036871;28;20052;-76
2023/06/10 11:14:31;;;;;;;0.10;0.10;;;;;;;20.12;31.91;103017.34;5040157;28;20041;-77
2023/06/10 11:16:59;;;;;;;0.65;0.10;;;;;;;20.19;32.02;103032.25;5040868;28;20165;-76
2023/06/10 11:19:37;;;;;;;0.20;0.10;;;;;;;20.20;32.16;103034.84;5039148;28;20577;-76
2023/06/10 11:22:06;;;;;;;0.30;0.10;;;;;;;20.19;31.99;103021.63;5042240;28;20044;-76
2023/06/10 11:24:33;;;;;;;1.65;0.00;;;;;;;20.21;32.28;103030.44;5037995;28;20071;-77
2023/06/10 11:27:24;;;;;;;1.05;0.08;;;;;;;20.21;32.36;103027.78;5044167;28;20049;-76
2023/06/10 11:29:59;;;;;;;0.50;0.08;;;;;;;20.14;32.04;103019.06;5035249;28;20044;-77
2023/06/10 11:32:30;;;;;;;;;;;;;;;20.13;32.46;103033.25;5038762;28;20060;-77
2023/06/10 11:34:57;;;;;;;0.90;0.00;;;;;;;19.92;31.76;103004.53;5038309;28;20782;-77